Time;durP1;ratioP1;P1;durP2;ratioP2;P2;SDS_P1;SDS_P2;PMS_P1;PMS_P2;Temp;Humidity;BMP_temperature;BMP_pressure;BME280_temperature;BME280_humidity;BME280_pressure;Samples;Min_cycle;Max_cycle;Signal;HPM_P1;HPM_P2
2022/01/25 00:24:53;;;;;;;72.05;32.05;;;;;;;3.12;100.00;103240.59;4916697;29;20036;-75
2022/01/25 00:29:35;;;;;;;69.80;31.83;;;;;;;3.06;100.00;103247.69;4900483;29;20050;-74
2022/01/25 00:32:02;;;;;;;75.55;34.45;;;;;;;2.97;100.00;103238.38;4915648;29;20040;-75
2022/01/25 00:34:29;;;;;;;76.05;33.03;;;;;;;2.92;100.00;103242.84;4898994;29;20039;-75
2022/01/25 00:36:55;;;;;;;74.88;32.55;;;;;;;2.86;100.00;103241.25;4913936;29;20040;-75
2022/01/25 00:39:27;;;;;;;75.20;32.88;;;;;;;2.98;100.00;103237.50;4877826;29;20046;-75
2022/01/25 00:41:53;;;;;;;74.87;34.80;;;;;;;3.01;100.00;103240.00;4900620;29;20047;-74
2022/01/25 00:44:20;;;;;;;77.88;34.00;;;;;;;3.21;100.00;103223.13;4902873;29;20231;-76
2022/01/25 00:46:47;;;;;;;76.95;34.45;;;;;;;3.25;100.00;103232.53;4929536;29;20047;-75
2022/01/25 00:49:21;;;;;;;81.55;35.55;;;;;;;3.17;100.00;103221.50;4912959;29;20038;-74
2022/01/25 00:51:59;;;;;;;85.88;35.28;;;;;;;3.18;100.00;103218.00;4911576;29;20079;-75
2022/01/25 00:54:33;;;;;;;80.90;35.85;;;;;;;3.12;100.00;103213.81;4881945;29;20122;-74
2022/01/25 00:57:00;;;;;;;79.60;34.58;;;;;;;3.11;100.00;103220.75;4908674;29;20380;-73
2022/01/25 00:59:31;;;;;;;87.13;36.95;;;;;;;3.05;100.00;103213.16;4928428;29;20035;-75
2022/01/25 01:02:01;;;;;;;83.07;35.90;;;;;;;3.04;100.00;103226.13;4923560;29;20050;-76
2022/01/25 01:04:27;;;;;;;86.75;37.00;;;;;;;3.04;100.00;103215.75;4909785;29;20039;-75
2022/01/25 01:06:53;;;;;;;91.65;38.50;;;;;;;3.04;100.00;103219.19;4925458;29;20725;-75
2022/01/25 01:09:21;;;;;;;84.43;36.72;;;;;;;2.86;100.00;103209.25;4895929;29;20422;-77
2022/01/25 01:12:04;;;;;;;89.28;37.38;;;;;;;2.87;100.00;103213.56;4893670;29;20043;-75
2022/01/25 01:31:09;;;;;;;105.93;42.80;;;;;;;2.92;100.00;103216.91;4914267;29;20042;-75
2022/01/25 01:34:11;;;;;;;107.82;41.83;;;;;;;2.90;100.00;103213.47;4930765;29;20046;-76
2022/01/25 01:37:14;;;;;;;107.40;43.70;;;;;;;2.95;100.00;103219.41;4918019;29;20102;-75
2022/01/25 01:40:39;;;;;;;105.80;44.15;;;;;;;2.91;100.00;103207.41;4911111;29;20038;-74
2022/01/25 01:45:27;;;;;;;106.15;43.25;;;;;;;2.87;100.00;103210.97;4926154;29;20063;-76
2022/01/25 01:48:00;;;;;;;116.82;45.85;;;;;;;2.93;100.00;103216.00;4895991;29;20078;-75
2022/01/25 01:50:29;;;;;;;127.38;48.75;;;;;;;2.89;100.00;103206.59;4917684;29;20035;-74
2022/01/25 01:52:56;;;;;;;121.18;46.22;;;;;;;2.95;100.00;103211.63;4906749;29;20047;-74
2022/01/25 01:55:22;;;;;;;117.85;45.63;;;;;;;2.91;100.00;103210.00;4912890;29;20055;-74
2022/01/25 01:57:49;;;;;;;123.68;47.60;;;;;;;2.90;100.00;103208.28;4895351;29;20670;-74
2022/01/25 02:00:20;;;;;;;119.15;48.30;;;;;;;3.03;100.00;103211.44;4911284;29;20036;-74
2022/01/25 02:02:46;;;;;;;125.55;46.78;;;;;;;2.96;100.00;103212.47;4905278;29;20040;-75
2022/01/25 02:05:12;;;;;;;123.03;47.55;;;;;;;2.87;100.00;103209.22;4925638;29;20047;-76
2022/01/25 02:07:38;;;;;;;131.25;48.53;;;;;;;2.84;100.00;103209.28;4913832;29;20047;-75
2022/01/25 02:10:05;;;;;;;135.40;51.08;;;;;;;2.91;100.00;103208.25;4901250;29;20040;-74
2022/01/25 02:12:31;;;;;;;131.57;49.03;;;;;;;2.85;100.00;103207.56;4912961;29;20168;-75
2022/01/25 02:14:56;;;;;;;130.93;48.90;;;;;;;2.94;100.00;103199.59;4896097;29;20421;-74
2022/01/25 02:22:53;;;;;;;;;;;;;;;2.75;100.00;103193.97;4925255;29;20521;-75
2022/01/25 02:25:19;;;;;;;135.48;48.65;;;;;;;2.78;100.00;103193.03;4927542;29;20017;-75
2022/01/25 02:27:45;;;;;;;138.27;52.08;;;;;;;2.82;100.00;103198.09;4895722;29;20064;-74
2022/01/25 02:30:11;;;;;;;136.38;51.35;;;;;;;3.00;100.00;103191.66;4913854;29;20662;-74
2022/01/25 02:32:37;;;;;;;136.80;51.88;;;;;;;2.99;100.00;103187.34;4908498;29;20087;-74
2022/01/25 02:35:04;;;;;;;137.88;52.80;;;;;;;3.00;100.00;103189.06;4892469;29;20040;-74
2022/01/25 02:37:29;;;;;;;136.38;51.45;;;;;;;2.86;100.00;103192.00;4916172;29;20047;-75
2022/01/25 02:39:55;;;;;;;137.13;51.25;;;;;;;2.85;100.00;103185.09;4896926;29;20024;-75
2022/01/25 02:42:21;;;;;;;138.85;52.63;;;;;;;2.93;100.00;103195.28;4914542;29;20411;-75
2022/01/25 02:44:48;;;;;;;140.93;52.17;;;;;;;2.88;100.00;103190.22;4931711;29;20039;-75
2022/01/25 02:49:57;;;;;;;137.13;49.40;;;;;;;2.90;100.00;103188.44;4914081;29;20039;-75
2022/01/25 02:52:23;;;;;;;137.15;52.28;;;;;;;2.91;100.00;103179.75;4931185;29;20075;-74
2022/01/25 02:54:50;;;;;;;136.77;51.95;;;;;;;2.84;100.00;103183.38;4927968;29;20118;-75
2022/01/25 02:57:16;;;;;;;133.48;52.83;;;;;;;2.76;100.00;103184.47;4898177;29;20206;-76
2022/01/25 02:59:42;;;;;;;135.57;50.83;;;;;;;2.67;100.00;103191.53;4884882;29;20502;-75
2022/01/25 03:02:07;;;;;;;130.77;50.80;;;;;;;2.63;100.00;103191.66;4900808;29;20608;-76
2022/01/25 03:04:33;;;;;;;131.88;51.40;;;;;;;2.65;100.00;103195.91;4912844;29;20095;-76
2022/01/25 03:06:59;;;;;;;142.85;52.38;;;;;;;2.64;100.00;103196.81;4898688;29;20180;-75
2022/01/25 03:09:25;;;;;;;141.27;52.78;;;;;;;2.63;100.00;103195.09;4929227;29;20114;-75
2022/01/25 03:12:12;;;;;;;139.05;50.80;;;;;;;2.65;100.00;103192.47;4900146;29;20067;-75
2022/01/25 03:15:23;;;;;;;139.07;52.80;;;;;;;2.61;100.00;103185.66;4926284;29;20091;-75
2022/01/25 03:17:57;;;;;;;139.20;51.83;;;;;;;2.67;100.00;103180.31;4914245;29;20066;-75
2022/01/25 03:20:36;;;;;;;130.15;50.58;;;;;;;2.61;100.00;103185.66;4914161;29;20035;-74
2022/01/25 03:23:17;;;;;;;136.32;51.78;;;;;;;2.60;100.00;103174.44;4909817;29;20084;-75
2022/01/25 03:25:43;;;;;;;132.93;50.50;;;;;;;2.66;100.00;103170.88;4912199;29;20531;-75
2022/01/25 03:28:08;;;;;;;144.90;53.40;;;;;;;2.62;100.00;103169.22;4901317;29;20070;-75
2022/01/25 03:30:34;;;;;;;136.55;50.92;;;;;;;2.58;100.00;103162.41;4911304;29;20164;-74
2022/01/25 03:33:00;;;;;;;143.10;54.17;;;;;;;2.54;100.00;103156.44;4926634;29;20127;-76
2022/01/25 03:35:25;;;;;;;142.65;52.72;;;;;;;2.53;100.00;103150.41;4896825;29;20039;-75
2022/01/25 03:37:51;;;;;;;138.98;52.15;;;;;;;2.51;100.00;103148.75;4913553;29;20043;-75
2022/01/25 03:40:18;;;;;;;135.57;52.58;;;;;;;2.50;100.00;103149.63;4910592;29;20028;-76
2022/01/25 03:42:45;;;;;;;133.77;52.72;;;;;;;2.44;100.00;103139.41;4914708;29;20107;-75
2022/01/25 03:45:17;;;;;;;143.48;52.47;;;;;;;2.54;100.00;103146.06;4896993;29;20566;-74
2022/01/25 03:47:57;;;;;;;140.32;52.92;;;;;;;2.50;100.00;103147.03;4913903;29;20050;-75
2022/01/25 03:50:23;;;;;;;134.98;52.28;;;;;;;2.50;100.00;103141.84;4913845;29;20036;-73
2022/01/25 03:52:51;;;;;;;143.15;53.85;;;;;;;2.48;100.00;103139.28;4901262;29;20767;-74
2022/01/25 03:55:17;;;;;;;139.88;52.15;;;;;;;2.54;100.00;103143.47;4925063;29;20098;-75
2022/01/25 03:57:43;;;;;;;141.95;52.67;;;;;;;2.53;100.00;103137.44;4914726;29;20466;-75
2022/01/25 04:00:10;;;;;;;149.48;54.97;;;;;;;2.59;100.00;103135.63;4912540;29;20028;-75
2022/01/25 04:02:48;;;;;;;142.02;53.15;;;;;;;2.59;100.00;103135.63;4912177;29;20058;-75
2022/01/25 04:05:22;;;;;;;133.05;51.38;;;;;;;2.82;100.00;103138.50;4914767;29;20078;-74
2022/01/25 04:07:50;;;;;;;144.85;53.72;;;;;;;2.90;100.00;103146.06;4912922;29;20055;-74
2022/01/25 04:10:20;;;;;;;142.00;52.55;;;;;;;3.01;100.00;103145.81;4896255;29;20089;-74
2022/01/25 04:12:47;;;;;;;150.70;55.65;;;;;;;2.93;100.00;103138.22;4930448;29;20078;-75
2022/01/25 04:15:13;;;;;;;148.85;55.33;;;;;;;2.92;100.00;103144.31;4912879;29;20047;-74
2022/01/25 04:17:40;;;;;;;148.77;56.13;;;;;;;2.87;100.00;103139.25;4914694;29;20572;-74
2022/01/25 04:20:21;;;;;;;149.48;54.35;;;;;;;2.85;100.00;103129.81;4914628;29;20034;-75
2022/01/25 04:25:30;;;;;;;157.05;56.78;;;;;;;2.81;100.00;103128.19;4927094;29;20067;-75
2022/01/25 04:27:56;;;;;;;152.65;55.80;;;;;;;2.83;100.00;103123.81;4904375;29;20107;-74
2022/01/25 04:30:22;;;;;;;149.27;52.47;;;;;;;2.76;100.00;103124.84;4923446;29;20056;-74
2022/01/25 04:32:59;;;;;;;150.55;55.95;;;;;;;2.75;100.00;103126.59;4914888;29;20047;-76
2022/01/25 04:49:12;;;;;;;155.88;55.75;;;;;;;2.60;100.00;103117.44;4916496;29;20075;-75
2022/01/25 04:51:49;;;;;;;144.57;54.08;;;;;;;2.68;100.00;103118.09;4904340;29;20076;-75
2022/01/25 04:54:42;;;;;;;146.15;54.75;;;;;;;2.61;100.00;103120.88;4916202;29;20046;-75
2022/01/25 05:02:38;;;;;;;142.00;54.42;;;;;;;2.49;100.00;103125.47;4904013;29;20402;-76
2022/01/25 05:05:12;;;;;;;149.23;55.17;;;;;;;2.52;100.00;103128.00;4897140;29;20051;-75
2022/01/25 05:10:08;;;;;;;139.85;53.03;;;;;;;2.49;100.00;103117.69;4927059;29;20068;-73
2022/01/25 05:12:43;;;;;;;145.77;54.30;;;;;;;2.53;100.00;103123.66;4911491;29;21058;-75
2022/01/25 05:15:26;;;;;;;143.93;53.05;;;;;;;2.60;100.00;103121.75;4882097;29;20048;-75
2022/01/25 05:18:15;;;;;;;144.77;53.45;;;;;;;2.59;100.00;103120.06;4930240;29;20256;-75
2022/01/25 05:23:25;;;;;;;149.95;55.95;;;;;;;2.47;100.00;103122.06;4913851;29;20067;-74
2022/01/25 05:25:51;;;;;;;153.30;58.13;;;;;;;2.43;100.00;103120.44;4928612;29;20697;-75
2022/01/25 05:28:16;;;;;;;134.50;51.55;;;;;;;2.45;100.00;103121.25;4917246;29;20438;-75
2022/01/25 05:30:42;;;;;;;139.90;51.20;;;;;;;2.42;100.00;103118.72;4897736;29;20032;-75
2022/01/25 05:33:08;;;;;;;153.02;55.85;;;;;;;2.42;100.00;103116.13;4915666;29;20167;-75
2022/01/25 05:35:34;;;;;;;145.45;52.65;;;;;;;2.43;100.00;103124.75;4886237;29;20051;-75
2022/01/25 05:38:00;;;;;;;132.52;49.08;;;;;;;2.41;100.00;103121.34;4915641;29;20035;-75
2022/01/25 05:40:48;;;;;;;150.27;53.65;;;;;;;2.41;100.00;103116.16;4912817;29;20039;-74
2022/01/25 05:48:11;;;;;;;138.63;52.00;;;;;;;2.59;100.00;103122.66;4928279;29;20047;-75
2022/01/25 05:50:37;;;;;;;141.52;56.13;;;;;;;2.56;100.00;103122.72;4895033;29;20452;-76
2022/01/25 05:53:03;;;;;;;145.57;55.15;;;;;;;2.56;100.00;103117.53;4916116;29;20126;-75
2022/01/25 05:55:29;;;;;;;137.10;52.78;;;;;;;2.49;100.00;103127.22;4903957;29;20055;-75
2022/01/25 05:57:54;;;;;;;144.98;53.60;;;;;;;2.51;100.00;103131.47;4931592;29;20032;-76
2022/01/25 06:00:20;;;;;;;153.05;55.60;;;;;;;2.52;100.00;103137.47;4902854;29;20059;-74
2022/01/25 06:02:47;;;;;;;141.90;55.22;;;;;;;2.53;100.00;103131.44;4902524;29;20039;-75
2022/01/25 06:05:13;;;;;;;145.20;55.13;;;;;;;2.49;100.00;103125.47;4899272;29;20039;-75
2022/01/25 06:07:39;;;;;;;147.07;54.55;;;;;;;2.55;100.00;103128.81;4898011;29;20506;-75
2022/01/25 06:10:06;;;;;;;146.73;54.47;;;;;;;2.64;100.00;103132.03;4929441;29;20080;-76
2022/01/25 06:12:32;;;;;;;142.65;52.95;;;;;;;2.67;100.00;103116.38;4883625;29;20039;-75
2022/01/25 06:14:57;;;;;;;148.27;55.40;;;;;;;2.64;100.00;103118.22;4899968;29;20047;-76
2022/01/25 06:17:23;;;;;;;151.88;56.22;;;;;;;2.67;100.00;103123.31;4930119;29;20841;-75
2022/01/25 06:19:49;;;;;;;146.50;55.33;;;;;;;2.62;100.00;103120.84;4883232;29;20059;-76
2022/01/25 06:22:15;;;;;;;145.27;56.20;;;;;;;2.71;100.00;103115.44;4913356;29;20076;-75
2022/01/25 06:24:41;;;;;;;150.13;55.22;;;;;;;2.75;100.00;103118.81;4917244;29;20952;-75
2022/01/25 06:27:07;;;;;;;146.45;55.67;;;;;;;2.70;100.00;103120.66;4927808;29;20040;-75
2022/01/25 06:29:32;;;;;;;138.80;54.78;;;;;;;2.68;100.00;103114.66;4916857;29;20206;-76
2022/01/25 06:31:59;;;;;;;159.55;57.33;;;;;;;2.66;100.00;103119.88;4929091;29;20035;-76
2022/01/25 06:34:25;;;;;;;148.27;54.42;;;;;;;2.59;100.00;103118.31;4916356;29;20083;-75
2022/01/25 06:36:50;;;;;;;142.07;56.55;;;;;;;2.64;100.00;103110.44;4917405;29;20074;-75
2022/01/25 06:39:16;;;;;;;144.73;54.00;;;;;;;2.57;100.00;103119.25;4915779;29;20407;-75
2022/01/25 06:41:42;;;;;;;145.27;54.90;;;;;;;2.53;100.00;103113.28;4920222;29;20054;-76
2022/01/25 06:44:11;;;;;;;156.82;55.58;;;;;;;2.63;100.00;103117.34;4915349;29;20725;-75
2022/01/25 06:46:37;;;;;;;145.50;53.17;;;;;;;2.64;100.00;103110.44;4916520;29;20073;-75
2022/01/25 06:49:03;;;;;;;140.98;52.30;;;;;;;2.51;100.00;103118.50;4913757;29;20040;-75
2022/01/25 06:51:29;;;;;;;155.27;55.25;;;;;;;2.49;100.00;103114.25;4915171;29;20230;-75
2022/01/25 06:53:54;;;;;;;146.65;54.15;;;;;;;2.43;100.00;103117.84;4915540;29;20483;-75
2022/01/25 06:56:20;;;;;;;145.77;52.97;;;;;;;2.46;100.00;103127.28;4919013;29;20075;-75
2022/01/25 06:58:46;;;;;;;153.25;54.53;;;;;;;2.45;100.00;103126.44;4925719;29;20035;-75
2022/01/25 07:01:11;;;;;;;154.20;56.60;;;;;;;2.47;100.00;103127.25;4900428;29;20055;-75
2022/01/25 07:03:37;;;;;;;152.80;54.80;;;;;;;2.46;100.00;103124.69;4899378;29;20051;-77
2022/01/25 07:06:03;;;;;;;153.25;55.17;;;;;;;2.57;100.00;103127.03;4911963;29;20048;-75
2022/01/25 07:08:28;;;;;;;158.48;56.22;;;;;;;2.46;100.00;103128.09;4916726;29;20085;-75
2022/01/25 07:10:54;;;;;;;154.38;55.70;;;;;;;2.51;100.00;103130.63;4917773;29;20035;-75
2022/01/25 07:13:20;;;;;;;150.43;55.05;;;;;;;2.55;100.00;103137.41;4904209;29;20047;-75
2022/01/25 07:15:46;;;;;;;153.75;54.47;;;;;;;2.50;100.00;103118.53;4933468;29;20114;-75
2022/01/25 07:18:11;;;;;;;146.35;54.30;;;;;;;2.53;100.00;103129.69;4931569;29;20043;-75
2022/01/25 07:20:37;;;;;;;154.02;55.33;;;;;;;2.47;100.00;103135.00;4897817;29;20039;-75
2022/01/25 07:23:03;;;;;;;157.80;55.60;;;;;;;2.49;100.00;103135.81;4904189;29;20065;-75
2022/01/25 07:25:28;;;;;;;154.85;53.85;;;;;;;2.49;100.00;103145.34;4914254;29;20229;-75
2022/01/25 07:27:54;;;;;;;150.63;54.65;;;;;;;2.48;100.00;103138.44;4914356;29;20040;-75
2022/01/25 07:30:23;;;;;;;163.38;57.50;;;;;;;2.52;100.00;103153.03;4900842;29;20348;-75
2022/01/25 07:32:48;;;;;;;149.90;54.88;;;;;;;2.56;100.00;103144.28;4911135;29;20547;-75
2022/01/25 07:35:14;;;;;;;155.07;55.53;;;;;;;2.56;100.00;103146.88;4896641;29;20039;-76
2022/01/25 07:37:41;;;;;;;150.80;53.40;;;;;;;2.55;100.00;103139.16;4881408;29;20131;-75
2022/01/25 07:40:07;;;;;;;156.45;54.00;;;;;;;2.59;100.00;103139.03;4909158;29;20036;-76
2022/01/25 07:42:36;;;;;;;151.93;55.28;;;;;;;2.62;100.00;103151.06;4919756;29;20048;-75
2022/01/25 07:45:07;;;;;;;145.77;54.05;;;;;;;2.60;100.00;103151.13;4929769;29;20035;-75
2022/01/25 07:47:37;;;;;;;153.20;52.35;;;;;;;2.63;100.00;103155.38;4899839;29;20526;-75
2022/01/25 07:50:05;;;;;;;150.45;55.78;;;;;;;2.71;100.00;103156.03;4908706;29;20107;-76
2022/01/25 07:52:31;;;;;;;160.45;55.88;;;;;;;2.57;100.00;103158.97;4916790;29;20040;-74
2022/01/25 07:54:56;;;;;;;153.07;54.20;;;;;;;2.68;100.00;103156.13;4925952;29;20054;-74
2022/01/25 07:57:22;;;;;;;158.52;53.40;;;;;;;2.63;100.00;103152.78;4921342;29;20115;-75
2022/01/25 07:59:47;;;;;;;156.90;56.40;;;;;;;2.67;100.00;103159.59;4926947;29;20040;-75
2022/01/25 08:02:16;;;;;;;165.18;58.08;;;;;;;2.71;100.00;103150.84;4913105;29;20067;-75
2022/01/25 08:04:42;;;;;;;149.88;54.58;;;;;;;2.77;100.00;103152.44;4901698;29;20040;-74
2022/01/25 08:07:08;;;;;;;149.23;54.00;;;;;;;2.73;100.00;103157.72;4892269;29;20035;-74
2022/01/25 08:09:33;;;;;;;149.68;54.90;;;;;;;2.64;100.00;103152.75;4915584;29;20040;-75
2022/01/25 08:11:59;;;;;;;152.02;53.28;;;;;;;2.73;100.00;103151.66;4900614;29;20034;-74
2022/01/25 08:14:27;;;;;;;152.93;54.15;;;;;;;2.69;100.00;103150.91;4929824;29;20059;-75
2022/01/25 08:16:53;;;;;;;154.65;54.70;;;;;;;2.73;100.00;103157.72;4878326;29;20154;-75
2022/01/25 08:19:20;;;;;;;162.63;56.22;;;;;;;2.69;100.00;103156.09;4899278;29;20036;-75
2022/01/25 08:21:47;;;;;;;165.27;57.20;;;;;;;2.72;100.00;103150.81;4897303;29;20714;-75
2022/01/25 08:24:15;;;;;;;166.52;54.40;;;;;;;2.72;100.00;103157.75;4897655;29;20031;-73
2022/01/25 08:26:42;;;;;;;167.90;56.50;;;;;;;2.72;100.00;103156.00;4901916;29;20151;-73
2022/01/25 08:29:09;;;;;;;167.45;55.40;;;;;;;2.79;100.00;103156.72;4901347;29;20043;-75
2022/01/25 08:31:35;;;;;;;158.68;54.95;;;;;;;2.87;100.00;103162.56;4902646;29;20466;-75
2022/01/25 08:34:02;;;;;;;156.38;55.22;;;;;;;2.96;100.00;103158.03;4930654;29;20036;-74
2022/01/25 08:36:28;;;;;;;157.65;55.25;;;;;;;2.91;100.00;103164.19;4907616;29;20049;-75
2022/01/25 08:38:54;;;;;;;159.88;55.25;;;;;;;2.88;100.00;103160.81;4912516;29;20411;-74
2022/01/25 08:41:20;;;;;;;157.90;54.15;;;;;;;2.88;100.00;103166.00;4917414;29;20036;-75
2022/01/25 08:43:47;;;;;;;153.75;54.33;;;;;;;2.95;100.00;103159.78;4897401;29;20039;-75
2022/01/25 08:46:13;;;;;;;148.23;53.70;;;;;;;2.99;100.00;103156.22;4930231;29;20122;-75
2022/01/25 08:48:39;;;;;;;153.23;54.88;;;;;;;2.93;100.00;103164.16;4901469;29;20050;-76
2022/01/25 08:51:06;;;;;;;152.02;53.38;;;;;;;2.92;100.00;103159.88;4916359;29;20028;-75
2022/01/25 08:53:32;;;;;;;152.98;51.80;;;;;;;2.96;100.00;103163.22;4911439;29;20035;-76
2022/01/25 08:55:57;;;;;;;152.07;52.70;;;;;;;3.03;100.00;103159.59;4896436;29;20051;-74
2022/01/25 08:58:23;;;;;;;160.82;53.67;;;;;;;2.99;100.00;103166.59;4877116;29;20047;-76
2022/01/25 09:00:49;;;;;;;157.65;54.53;;;;;;;2.98;100.00;103166.66;4910957;29;20086;-74
2022/01/25 09:03:15;;;;;;;159.73;54.92;;;;;;;3.01;100.00;103166.56;4889828;29;20048;-75
2022/01/25 09:05:41;;;;;;;152.90;54.42;;;;;;;3.07;100.00;103163.81;4884819;29;20051;-76
2022/01/25 09:08:07;;;;;;;151.82;52.47;;;;;;;3.16;100.00;103163.56;4914394;29;20139;-75
2022/01/25 09:10:33;;;;;;;153.63;54.42;;;;;;;3.11;100.00;103171.50;4932188;29;20043;-75
2022/01/25 09:13:00;;;;;;;152.20;53.38;;;;;;;3.07;100.00;103167.28;4916114;29;20397;-75
2022/01/25 09:15:26;;;;;;;162.05;55.88;;;;;;;3.04;100.00;103164.75;4918968;29;20043;-76
2022/01/25 09:17:52;;;;;;;167.18;55.80;;;;;;;3.06;100.00;103165.56;4904946;29;20038;-75
2022/01/25 09:20:20;;;;;;;169.05;56.25;;;;;;;3.09;100.00;103172.44;4879208;29;20044;-75
2022/01/25 09:22:46;;;;;;;155.18;54.63;;;;;;;3.11;100.00;103168.06;4906085;29;20414;-76
2022/01/25 09:25:13;;;;;;;159.13;52.75;;;;;;;3.09;100.00;103169.84;4918391;29;20044;-75
2022/01/25 09:27:39;;;;;;;161.20;54.70;;;;;;;3.07;100.00;103166.41;4905883;29;20047;-76
2022/01/25 09:30:05;;;;;;;167.90;55.55;;;;;;;3.15;100.00;103161.91;4916249;29;20031;-76
2022/01/25 09:32:31;;;;;;;157.20;53.53;;;;;;;3.18;100.00;103166.13;4917840;29;20040;-76
2022/01/25 09:34:56;;;;;;;167.57;56.78;;;;;;;3.17;100.00;103167.03;4905169;29;20430;-75
2022/01/25 09:37:22;;;;;;;165.05;53.22;;;;;;;3.17;100.00;103172.22;4918426;29;20099;-75
2022/01/25 09:39:48;;;;;;;153.93;53.75;;;;;;;3.23;100.00;103167.72;4908873;29;20043;-76
2022/01/25 09:42:13;;;;;;;163.60;53.83;;;;;;;3.23;100.00;103164.28;4916121;29;20044;-75
2022/01/25 09:44:41;;;;;;;163.15;51.95;;;;;;;3.27;100.00;103173.69;4930935;29;20115;-77
2022/01/25 09:47:09;;;;;;;160.25;53.72;;;;;;;3.31;100.00;103170.13;4928932;29;20036;-76
2022/01/25 09:49:36;;;;;;;163.27;53.92;;;;;;;3.38;100.00;103178.59;4926509;29;20518;-75
2022/01/25 09:52:04;;;;;;;146.82;51.08;;;;;;;3.37;100.00;103180.34;4871161;29;20040;-76
2022/01/25 09:54:31;;;;;;;147.95;52.65;;;;;;;3.40;100.00;103188.03;4908406;29;20079;-74
2022/01/25 09:56:58;;;;;;;147.95;50.33;;;;;;;3.49;100.00;103186.97;4917049;29;20063;-76
2022/01/25 09:59:26;;;;;;;149.75;50.50;;;;;;;3.49;100.00;103179.19;4891619;29;20134;-75
2022/01/25 10:01:53;;;;;;;142.15;50.58;;;;;;;3.51;100.00;103177.38;4903549;29;20047;-76
2022/01/25 10:04:39;;;;;;;144.93;52.58;;;;;;;3.52;100.00;103184.25;4931181;29;20495;-75
2022/01/25 10:07:05;;;;;;;151.70;51.72;;;;;;;3.57;100.00;103177.22;4916689;29;20055;-74
2022/01/25 10:09:32;;;;;;;146.60;51.53;;;;;;;3.68;100.00;103175.19;4917268;29;20565;-76
2022/01/25 10:12:19;;;;;;;142.77;49.85;;;;;;;3.65;100.00;103180.44;4917250;29;20553;-76
2022/01/25 10:15:00;;;;;;;141.23;50.17;;;;;;;3.58;100.00;103168.56;4900003;29;20709;-73
2022/01/25 10:17:31;;;;;;;149.68;51.88;;;;;;;3.57;100.00;103176.38;4901448;29;20099;-75
2022/01/25 10:19:56;;;;;;;141.43;50.40;;;;;;;3.64;100.00;103178.75;4930615;29;20118;-76
2022/01/25 10:22:22;;;;;;;142.57;50.67;;;;;;;3.79;100.00;103174.06;4925095;29;20625;-75
2022/01/25 10:24:48;;;;;;;127.88;48.40;;;;;;;3.87;100.00;103178.13;4915975;29;20047;-75
2022/01/25 10:27:14;;;;;;;119.28;46.40;;;;;;;3.92;100.00;103175.41;4926650;29;20032;-76
2022/01/25 10:29:41;;;;;;;132.23;48.38;;;;;;;3.85;100.00;103179.06;4931297;29;20382;-75
2022/01/25 10:32:06;;;;;;;132.88;48.88;;;;;;;3.87;100.00;103172.06;4915891;29;20044;-76
2022/01/25 10:34:40;;;;;;;135.05;48.95;;;;;;;3.89;100.00;103188.47;4930762;29;20039;-73
2022/01/25 10:37:07;;;;;;;123.65;47.60;;;;;;;3.86;100.00;103184.22;4900908;29;20641;-75
2022/01/25 10:39:40;;;;;;;125.28;46.53;;;;;;;3.86;100.00;103171.22;4928456;29;20099;-75
2022/01/25 10:42:09;;;;;;;131.85;47.33;;;;;;;3.95;100.00;103175.31;4916204;29;20040;-75
2022/01/25 10:44:49;;;;;;;125.38;47.17;;;;;;;3.97;100.00;103173.50;4880576;29;20047;-75
2022/01/25 10:47:21;;;;;;;126.93;46.80;;;;;;;4.01;100.00;103172.56;4916430;29;20040;-76
2022/01/25 10:49:50;;;;;;;129.45;47.47;;;;;;;3.99;100.00;103170.88;4927661;29;20530;-75
2022/01/25 10:52:28;;;;;;;134.57;47.63;;;;;;;4.04;100.00;103172.44;4914322;29;20047;-76
2022/01/25 10:54:54;;;;;;;130.43;49.42;;;;;;;4.01;100.00;103169.06;4917691;29;20055;-76
2022/01/25 10:57:23;;;;;;;127.38;47.60;;;;;;;4.05;100.00;103170.69;4931707;29;20048;-75
2022/01/25 10:59:58;;;;;;;122.55;45.88;;;;;;;4.06;100.00;103173.25;4917058;29;20031;-76
2022/01/25 11:02:24;;;;;;;130.43;47.55;;;;;;;4.09;100.00;103169.72;4914104;29;20044;-76
2022/01/25 11:04:51;;;;;;;116.53;45.75;;;;;;;4.12;100.00;103159.22;4915959;29;20066;-76
2022/01/25 11:07:18;;;;;;;120.05;46.75;;;;;;;4.20;100.00;103164.19;4914880;29;20070;-75
2022/01/25 11:09:46;;;;;;;126.70;45.78;;;;;;;4.18;100.00;103171.19;4916810;29;20094;-75
2022/01/25 11:12:18;;;;;;;123.65;45.47;;;;;;;4.21;100.00;103160.72;4902040;29;20043;-75
2022/01/25 11:14:53;;;;;;;116.68;44.38;;;;;;;4.19;100.00;103158.16;4915312;29;20046;-75
2022/01/25 11:17:24;;;;;;;118.40;42.53;;;;;;;4.23;100.00;103156.31;4893060;29;20143;-75
2022/01/25 11:19:51;;;;;;;116.63;44.05;;;;;;;4.24;100.00;103148.47;4928741;29;20079;-75
2022/01/25 11:22:19;;;;;;;110.88;42.10;;;;;;;4.31;100.00;103135.28;4923673;29;20484;-75
2022/01/25 11:24:49;;;;;;;115.43;43.03;;;;;;;4.31;100.00;103137.91;4913395;29;20506;-76
2022/01/25 11:27:15;;;;;;;108.78;42.45;;;;;;;4.33;100.00;103136.94;4898516;29;20098;-72
2022/01/25 11:29:46;;;;;;;115.03;44.08;;;;;;;4.32;100.00;103137.84;4902023;29;20039;-75
2022/01/25 11:32:15;;;;;;;114.93;42.88;;;;;;;4.35;100.00;103134.31;4930871;29;20032;-74
2022/01/25 11:34:43;;;;;;;114.00;43.20;;;;;;;4.36;100.00;103133.41;4930015;29;20054;-76
2022/01/25 11:37:09;;;;;;;107.47;40.80;;;;;;;4.43;100.00;103135.78;4927760;29;20151;-76
2022/01/25 11:39:39;;;;;;;103.20;40.83;;;;;;;4.54;100.00;103131.97;4895498;29;20139;-76
2022/01/25 11:42:25;;;;;;;104.72;41.45;;;;;;;4.47;100.00;103121.78;4917423;29;20055;-75
2022/01/25 11:44:56;;;;;;;105.65;40.08;;;;;;;4.40;100.00;103124.63;4908219;29;20062;-75
2022/01/25 11:47:30;;;;;;;110.15;42.10;;;;;;;4.38;100.00;103121.22;4919119;29;20397;-75
2022/01/25 11:49:59;;;;;;;114.80;41.83;;;;;;;4.43;100.00;103125.38;4900813;29;20043;-75
2022/01/25 11:52:26;;;;;;;98.57;40.88;;;;;;;4.37;100.00;103122.09;4916713;29;20043;-75
2022/01/25 11:55:14;;;;;;;108.45;41.17;;;;;;;4.39;100.00;103118.59;4931684;29;20050;-76
2022/01/25 11:58:10;;;;;;;110.20;43.20;;;;;;;4.42;100.00;103122.81;4910575;29;20095;-76
2022/01/25 12:00:44;;;;;;;106.68;41.90;;;;;;;4.45;100.00;103115.78;4912851;29;20051;-75
2022/01/25 12:03:35;;;;;;;113.22;43.63;;;;;;;4.39;100.00;103115.97;4911949;29;20032;-76
2022/01/25 12:06:08;;;;;;;104.72;41.17;;;;;;;4.45;100.00;103110.59;4913319;29;20052;-75
2022/01/25 12:09:06;;;;;;;;;;;;;;;4.50;100.00;103100.03;4927370;29;20075;-76
2022/01/25 12:12:22;;;;;;;96.65;38.28;;;;;;;4.42;100.00;103102.88;4914696;29;19957;-75
2022/01/25 12:14:32;;;;;;;103.82;39.72;;;;;;;4.43;100.00;103102.00;4887321;29;20407;-76
2022/01/25 12:17:08;;;;;;;105.78;40.15;;;;;;;4.42;100.00;103099.44;4898894;29;20122;-75
2022/01/25 12:19:49;;;;;;;101.53;40.38;;;;;;;4.43;100.00;103093.34;4924002;29;20051;-75
2022/01/25 12:22:40;;;;;;;107.22;39.97;;;;;;;4.31;100.00;103097.16;4899097;29;20043;-75
2022/01/25 12:25:33;;;;;;;105.18;40.17;;;;;;;4.31;100.00;103091.97;4913309;29;20044;-75
2022/01/25 12:28:10;;;;;;;102.40;38.83;;;;;;;4.32;100.00;103087.66;4904628;29;20483;-76
2022/01/25 12:30:46;;;;;;;105.75;40.22;;;;;;;4.32;100.00;103092.84;4906765;29;20079;-75
2022/01/25 12:33:23;;;;;;;103.68;39.83;;;;;;;4.29;100.00;103089.44;4911951;29;20032;-76
2022/01/25 12:35:59;;;;;;;103.07;38.72;;;;;;;4.32;100.00;103082.44;4902307;29;20445;-73
2022/01/25 12:38:27;;;;;;;98.00;38.60;;;;;;;4.36;100.00;103084.03;4896380;29;20613;-73